Chicago, Illinois
Traffic Map
Current Weather Conditions
Chicago, Illinois
Scattered Clouds
Scattered Clouds
30°
Feels Like: 31°
Wind Chill: 30° Ceiling: Unl
Heat Index: 31° Visibility: 10mi
Dew Point: 19° Wind: 10mph
Humidity: 51% Direction: 140° (SE)
Pressure: 29.97in Gusts: 0mph
Raw Report DataKMDW 281453Z 14009KT 10SM SCT250 30/19 A2997 RMK AO2 SLP137 T03000189 58008
Traffic Incident Summary
Active as of:
Severity:
Category:
InformationThere was an issue retrieving the traffic information for this location. Please try a different location or try again shortly.
Advertisements
Track Severe Weather on mobile